Terminal Aerodrome Forecast
Issued by NWS

Home | Current Version | Previous Version | Text Only | Print | Product List | Glossary On
Versions: 1 2 3 4 5 6 7 8 9 10 11 12 13 14 15
000
FTUS45 KRIW 231739
TAFCOD
TAF
KCOD 231739Z 2318/2418 35014G22KT P6SM SCT035 BKN060
     FM232000 36012G20KT 4SM -RASN SCT010 BKN020
     FM232300 35010G16KT P6SM VCSH SCT020 BKN035
     FM240300 33006KT P6SM SCT030 BKN060
     FM240700 25007KT P6SM SCT080
      AMD LTD TO CLD VIS AND WIND=

USA.gov is the U.S. government's official web portal to all federal, state and local government web resources and services.